createdAt,value
2018-08-28T00:00:19.615Z,99326.48
2018-08-28T00:02:47.337Z,99324.27
2018-08-28T00:05:15.025Z,99331.97
2018-08-28T00:07:42.689Z,99335.27
2018-08-28T00:10:10.431Z,99336.91
2018-08-28T00:12:38.085Z,99340.19
2018-08-28T00:15:06.073Z,99341.00
2018-08-28T00:17:33.746Z,99342.66
2018-08-28T00:20:01.421Z,99344.31
2018-08-28T00:22:29.078Z,99339.11
2018-08-28T00:24:56.786Z,99345.42
2018-08-28T00:27:24.441Z,99340.38
2018-08-28T00:29:52.099Z,99351.55
2018-08-28T00:32:19.852Z,99347.45
2018-08-28T00:34:47.502Z,99345.87
2018-08-28T00:37:15.162Z,99349.75
2018-08-28T00:39:42.841Z,99349.95
2018-08-28T00:42:10.484Z,99351.05
2018-08-28T00:44:38.162Z,99351.68
2018-08-28T00:47:05.851Z,99345.61
2018-08-28T00:49:33.532Z,99339.50
2018-08-28T00:52:01.218Z,99348.87
2018-08-28T00:54:28.982Z,99349.70
2018-08-28T00:56:56.635Z,99346.46
2018-08-28T00:59:24.298Z,99345.41
2018-08-28T01:01:53.053Z,99349.33
2018-08-28T01:04:20.743Z,99351.70
2018-08-28T01:06:49.248Z,99353.02
2018-08-28T01:09:16.936Z,99349.28
2018-08-28T01:11:44.594Z,99352.10
2018-08-28T01:14:12.257Z,99349.62
2018-08-28T01:16:39.951Z,99352.14
2018-08-28T01:19:07.619Z,99348.50
2018-08-28T01:21:35.354Z,99349.91
2018-08-28T01:24:03.071Z,99356.09
2018-08-28T01:26:30.759Z,99354.30
2018-08-28T01:28:58.498Z,99354.33
2018-08-28T01:31:26.186Z,99349.16
2018-08-28T01:33:53.843Z,99343.44
2018-08-28T01:36:21.522Z,99341.28
2018-08-28T01:38:49.206Z,99342.95
2018-08-28T01:41:16.880Z,99350.36
2018-08-28T01:43:44.541Z,99353.40
2018-08-28T01:46:12.234Z,99347.61
2018-08-28T01:48:39.891Z,99352.00
2018-08-28T01:51:07.550Z,99352.55
2018-08-28T01:53:35.337Z,99350.63
2018-08-28T01:56:03.023Z,99349.80
2018-08-28T01:58:30.682Z,99353.95
2018-08-28T02:00:58.404Z,99350.91
2018-08-28T02:03:26.066Z,99356.69
2018-08-28T02:05:53.711Z,99353.95
2018-08-28T02:08:21.409Z,99348.98
2018-08-28T02:10:49.085Z,99357.52
2018-08-28T02:13:16.779Z,99356.39
2018-08-28T02:15:44.486Z,99361.06
2018-08-28T02:18:12.166Z,99356.39
2018-08-28T02:20:39.838Z,99360.99
2018-08-28T02:23:07.542Z,99366.83
2018-08-28T02:25:35.209Z,99366.27
2018-08-28T02:28:02.874Z,99366.79
2018-08-28T02:30:30.555Z,99367.05
2018-08-28T02:32:58.245Z,99366.48
2018-08-28T02:35:25.938Z,99363.22
2018-08-28T02:37:53.623Z,99370.08
2018-08-28T02:40:21.294Z,99377.48
2018-08-28T02:42:48.954Z,99370.59
2018-08-28T02:45:16.746Z,99367.30
2018-08-28T02:47:44.418Z,99373.42
2018-08-28T02:50:12.095Z,99367.05
2018-08-28T02:52:39.806Z,99375.55
2018-08-28T02:55:07.533Z,99377.47
2018-08-28T02:57:35.194Z,99377.61
2018-08-28T03:00:03.048Z,99377.30
2018-08-28T03:02:30.717Z,99372.47
2018-08-28T03:04:58.391Z,99376.31
2018-08-28T03:07:26.098Z,99382.61
2018-08-28T03:09:53.766Z,99385.36
2018-08-28T03:12:21.449Z,99387.99
2018-08-28T03:14:49.127Z,99392.08
2018-08-28T03:17:17.162Z,99383.15
2018-08-28T03:19:44.825Z,99390.44
2018-08-28T03:22:12.582Z,99393.84
2018-08-28T03:24:40.233Z,99393.59
2018-08-28T03:27:07.934Z,99396.10
2018-08-28T03:29:35.629Z,99404.72
2018-08-28T03:32:03.307Z,99401.16
2018-08-28T03:34:30.981Z,99393.61
2018-08-28T03:36:58.758Z,99404.27
2018-08-28T03:39:26.716Z,99402.21
2018-08-28T03:41:54.374Z,99408.27
2018-08-28T03:44:22.102Z,99404.72
2018-08-28T03:46:49.775Z,99418.66
2018-08-28T03:49:17.437Z,99429.25
2018-08-28T03:51:45.166Z,99426.47
2018-08-28T03:54:12.870Z,99429.45
2018-08-28T03:56:40.623Z,99427.19
2018-08-28T03:59:08.327Z,99434.09
2018-08-28T04:01:36.014Z,99440.38
2018-08-28T04:04:03.691Z,99436.56
2018-08-28T04:06:31.494Z,99449.39
2018-08-28T04:08:59.175Z,99443.44
2018-08-28T04:11:26.859Z,99449.53
2018-08-28T04:13:54.580Z,99443.41
2018-08-28T04:16:22.257Z,99444.00
2018-08-28T04:18:49.925Z,99453.64
2018-08-28T04:21:17.630Z,99450.98
2018-08-28T04:23:45.298Z,99452.75
2018-08-28T04:26:12.973Z,99454.97
2018-08-28T04:28:40.674Z,99462.76
2018-08-28T04:31:08.366Z,99470.54
2018-08-28T04:33:36.035Z,99467.98
2018-08-28T04:36:03.755Z,99469.11
2018-08-28T04:38:31.423Z,99475.50
2018-08-28T04:40:59.097Z,99473.25
2018-08-28T04:43:26.790Z,99473.88
2018-08-28T04:45:54.466Z,99481.17
2018-08-28T04:48:22.238Z,99474.39
2018-08-28T04:50:49.939Z,99476.83
2018-08-28T04:53:17.614Z,99475.04
2018-08-28T04:55:45.274Z,99473.19
2018-08-28T04:58:13.025Z,99475.41
2018-08-28T05:00:40.721Z,99470.48
2018-08-28T05:03:08.406Z,99470.31
2018-08-28T05:05:36.129Z,99471.86
2018-08-28T05:08:03.854Z,99480.90
2018-08-28T05:10:31.511Z,99476.60
2018-08-28T05:12:59.214Z,99479.66
2018-08-28T05:15:26.871Z,99486.98
2018-08-28T05:17:54.530Z,99482.66
2018-08-28T05:20:22.221Z,99488.84
2018-08-28T05:22:49.907Z,99494.44
2018-08-28T05:25:17.621Z,99488.86
2018-08-28T05:27:45.406Z,99489.25
2018-08-28T05:30:13.090Z,99487.78
2018-08-28T05:32:40.758Z,99490.65
2018-08-28T05:35:08.576Z,99488.50
2018-08-28T05:37:36.229Z,99492.85
2018-08-28T05:40:04.058Z,99493.70
2018-08-28T05:42:31.758Z,99495.08
2018-08-28T05:44:59.430Z,99495.19
2018-08-28T05:47:27.130Z,99492.06
2018-08-28T05:49:54.853Z,99492.16
2018-08-28T05:52:22.560Z,99498.04
2018-08-28T05:54:50.269Z,99500.52
2018-08-28T05:57:17.996Z,99502.66
2018-08-28T05:59:45.674Z,99510.59
2018-08-28T06:02:13.354Z,99504.04
2018-08-28T06:04:41.045Z,99499.81
2018-08-28T06:07:08.783Z,99501.52
2018-08-28T06:09:36.445Z,99501.84
2018-08-28T06:12:04.171Z,99508.79
2018-08-28T06:14:31.894Z,99516.44
2018-08-28T06:16:59.555Z,99524.61
2018-08-28T06:19:27.266Z,99514.30
2018-08-28T06:21:54.974Z,99520.16
2018-08-28T06:24:22.655Z,99524.55
2018-08-28T06:26:50.355Z,99523.69
2018-08-28T06:29:18.014Z,99528.22
2018-08-28T06:31:45.691Z,99529.53
2018-08-28T06:34:13.409Z,99527.20
2018-08-28T06:36:41.082Z,99524.52
2018-08-28T06:39:09.299Z,99525.36
2018-08-28T06:41:37.064Z,99528.86
2018-08-28T06:44:04.776Z,99541.03
2018-08-28T06:46:32.549Z,99538.83
2018-08-28T06:49:00.250Z,99554.78
2018-08-28T06:51:28.001Z,99554.78
2018-08-28T06:53:55.713Z,99563.05
2018-08-28T06:56:23.493Z,99560.30
2018-08-28T06:58:51.257Z,99569.11
2018-08-28T07:01:19.008Z,99575.95
2018-08-28T07:03:46.766Z,99573.46
2018-08-28T07:06:14.509Z,99571.81
2018-08-28T07:08:42.223Z,99576.20
2018-08-28T07:11:09.972Z,99584.48
2018-08-28T07:13:37.697Z,99592.45
2018-08-28T07:16:05.757Z,99590.75
2018-08-28T07:18:33.441Z,99591.62
2018-08-28T07:21:01.143Z,99590.50
2018-08-28T07:23:28.885Z,99597.95
2018-08-28T07:25:56.681Z,99595.80
2018-08-28T07:28:24.290Z,99598.78
2018-08-28T07:30:51.999Z,99596.86
2018-08-28T07:33:19.706Z,99592.19
2018-08-28T07:35:47.425Z,99591.08
2018-08-28T07:38:15.100Z,99591.64
2018-08-28T07:40:42.803Z,99591.38
2018-08-28T07:43:10.465Z,99585.62
2018-08-28T07:45:38.164Z,99594.11
2018-08-28T07:48:05.979Z,99589.87
2018-08-28T07:50:33.686Z,99595.75
2018-08-28T07:53:01.363Z,99585.16
2018-08-28T07:55:29.097Z,99582.68
2018-08-28T07:57:56.809Z,99575.53
2018-08-28T08:00:24.508Z,99569.63
2018-08-28T08:02:52.207Z,99566.85
2018-08-28T08:05:19.898Z,99572.09
2018-08-28T08:07:47.572Z,99567.69
2018-08-28T08:10:15.317Z,99560.14
2018-08-28T08:12:42.996Z,99567.48
2018-08-28T08:15:10.709Z,99578.59
2018-08-28T08:17:38.712Z,99580.13
2018-08-28T08:20:06.406Z,99565.30
2018-08-28T08:22:34.085Z,99563.00
2018-08-28T08:25:01.876Z,99567.88
2018-08-28T08:27:29.566Z,99575.47
2018-08-28T08:29:57.215Z,99575.91
2018-08-28T08:32:24.926Z,99575.79
2018-08-28T08:34:52.617Z,99575.33
2018-08-28T08:37:20.327Z,99572.41
2018-08-28T08:39:48.018Z,99564.95
2018-08-28T08:42:15.687Z,99573.25
2018-08-28T08:44:43.399Z,99565.81
2018-08-28T08:47:11.198Z,99565.28
2018-08-28T08:49:38.869Z,99568.13
2018-08-28T08:52:06.562Z,99560.19
2018-08-28T08:54:34.269Z,99551.56
2018-08-28T08:57:01.984Z,99558.27
2018-08-28T08:59:29.641Z,99551.81
2018-08-28T09:01:57.350Z,99555.05
2018-08-28T09:04:25.026Z,99548.63
2018-08-28T09:06:52.699Z,99549.89
2018-08-28T09:09:20.400Z,99552.14
2018-08-28T09:11:48.071Z,99552.02
2018-08-28T09:14:15.733Z,99554.98
2018-08-28T09:16:43.494Z,99557.48
2018-08-28T09:19:11.237Z,99555.08
2018-08-28T09:21:38.885Z,99551.95
2018-08-28T09:24:06.647Z,99549.94
2018-08-28T09:26:34.384Z,99554.81
2018-08-28T09:29:02.067Z,99555.58
2018-08-28T09:31:29.832Z,99558.72
2018-08-28T09:33:57.522Z,99556.92
2018-08-28T09:36:25.286Z,99559.09
2018-08-28T09:38:53.176Z,99559.28
2018-08-28T09:41:20.885Z,99565.72
2018-08-28T09:43:48.584Z,99558.58
2018-08-28T09:46:16.376Z,99563.71
2018-08-28T09:48:44.049Z,99559.50
2018-08-28T09:51:11.806Z,99571.70
2018-08-28T09:53:39.518Z,99568.11
2018-08-28T09:56:07.245Z,99563.38
2018-08-28T09:58:35.072Z,99568.80
2018-08-28T10:01:08.277Z,99567.95
2018-08-28T10:03:35.992Z,99567.16
2018-08-28T10:06:03.708Z,99570.61
2018-08-28T10:08:31.454Z,99574.08
2018-08-28T10:10:59.269Z,99579.80
2018-08-28T10:13:26.944Z,99583.82
2018-08-28T10:15:54.665Z,99571.89
2018-08-28T10:18:22.370Z,99579.12
2018-08-28T10:20:50.030Z,99573.30
2018-08-28T10:23:17.728Z,99565.72
2018-08-28T10:25:45.439Z,99566.13
2018-08-28T10:28:13.186Z,99563.73
2018-08-28T10:30:40.893Z,99557.28
2018-08-28T10:33:08.608Z,99549.13
2018-08-28T10:35:36.282Z,99557.43
2018-08-28T10:38:04.072Z,99555.73
2018-08-28T10:40:31.749Z,99550.53
2018-08-28T10:42:59.421Z,99540.11
2018-08-28T10:45:27.157Z,99542.50
2018-08-28T10:47:54.836Z,99541.47
2018-08-28T10:50:22.553Z,99530.36
2018-08-28T10:52:50.269Z,99536.53
2018-08-28T10:55:18.002Z,99526.25
2018-08-28T10:57:45.661Z,99526.01
2018-08-28T11:00:13.461Z,99519.82
2018-08-28T11:02:41.153Z,99530.34
2018-08-28T11:05:08.888Z,99520.91
2018-08-28T11:07:36.610Z,99526.95
2018-08-28T11:10:04.430Z,99534.78
2018-08-28T11:12:32.190Z,99539.27
2018-08-28T11:14:59.913Z,99521.28
2018-08-28T11:17:27.638Z,99516.43
2018-08-28T11:19:56.025Z,99513.20
2018-08-28T11:22:23.808Z,99510.76
2018-08-28T11:24:51.486Z,99507.81
2018-08-28T11:27:19.199Z,99498.23
2018-08-28T11:29:46.938Z,99505.72
2018-08-28T11:32:14.641Z,99493.16
2018-08-28T11:34:42.371Z,99490.41
2018-08-28T11:37:10.064Z,99487.62
2018-08-28T11:39:37.949Z,99491.66
2018-08-28T11:42:05.766Z,99482.34
2018-08-28T11:44:33.499Z,99482.41
2018-08-28T11:47:01.263Z,99475.36
2018-08-28T11:49:28.988Z,99471.05
2018-08-28T11:51:57.606Z,99464.56
2018-08-28T11:54:25.300Z,99466.46
2018-08-28T11:56:53.093Z,99455.22
2018-08-28T11:59:20.822Z,99461.68
2018-08-28T12:01:48.531Z,99459.77
2018-08-28T12:04:16.324Z,99451.27
2018-08-28T12:06:44.138Z,99443.91
2018-08-28T12:09:12.134Z,99448.72
2018-08-28T12:11:39.786Z,99441.08
2018-08-28T12:14:07.533Z,99443.66
2018-08-28T12:16:35.317Z,99442.64
2018-08-28T12:19:03.022Z,99442.17
2018-08-28T12:21:30.749Z,99440.98
2018-08-28T12:23:58.449Z,99448.15
2018-08-28T12:26:26.127Z,99443.81
2018-08-28T12:28:53.858Z,99436.34
2018-08-28T12:31:21.539Z,99443.06
2018-08-28T12:33:49.286Z,99448.84
2018-08-28T12:36:17.052Z,99445.97
2018-08-28T12:38:44.769Z,99440.68
2018-08-28T12:41:12.458Z,99447.28
2018-08-28T12:43:40.153Z,99446.39
2018-08-28T12:46:07.960Z,99441.44
2018-08-28T12:48:35.661Z,99424.81
2018-08-28T12:51:03.501Z,99432.28
2018-08-28T12:53:31.188Z,99429.49
2018-08-28T12:55:58.891Z,99430.13
2018-08-28T12:58:26.646Z,99433.97
2018-08-28T13:00:54.353Z,99429.37
2018-08-28T13:03:22.070Z,99425.11
2018-08-28T13:05:49.874Z,99417.41
2018-08-28T13:08:17.604Z,99420.19
2018-08-28T13:10:45.326Z,99418.03
2018-08-28T13:13:13.081Z,99415.88
2018-08-28T13:15:40.802Z,99417.93
2018-08-28T13:18:08.525Z,99417.59
2018-08-28T13:20:36.305Z,99417.08
2018-08-28T13:23:04.169Z,99417.84
2018-08-28T13:25:32.005Z,99411.08
2018-08-28T13:27:59.634Z,99411.65
2018-08-28T13:30:27.364Z,99418.92
2018-08-28T13:32:55.089Z,99410.34
2018-08-28T13:35:22.853Z,99419.82
2018-08-28T13:37:50.570Z,99404.42
2018-08-28T13:40:18.303Z,99410.88
2018-08-28T13:42:46.031Z,99422.05
2018-08-28T13:45:13.756Z,99414.01
2018-08-28T13:47:41.486Z,99415.30
2018-08-28T13:50:09.266Z,99421.58
2018-08-28T13:52:36.982Z,99421.05
2018-08-28T13:55:04.726Z,99419.38
2018-08-28T13:57:32.459Z,99420.57
2018-08-28T14:00:00.155Z,99424.19
2018-08-28T14:02:27.879Z,99419.13
2018-08-28T14:04:55.581Z,99420.86
2018-08-28T14:07:23.274Z,99420.25
2018-08-28T14:09:51.019Z,99412.14
2018-08-28T14:12:18.753Z,99411.88
2018-08-28T14:14:46.670Z,99410.73
2018-08-28T14:17:14.181Z,99412.28
2018-08-28T14:19:41.933Z,99410.33
2018-08-28T14:22:09.810Z,99408.77
2018-08-28T14:24:37.490Z,99412.89
2018-08-28T14:27:05.985Z,99408.89
2018-08-28T14:29:33.685Z,99421.27
2018-08-28T14:32:01.489Z,99414.77
2018-08-28T14:34:29.186Z,99411.95
2018-08-28T14:36:56.958Z,99415.59
2018-08-28T14:39:24.705Z,99407.73
2018-08-28T14:41:52.429Z,99412.70
2018-08-28T14:44:20.314Z,99408.38
2018-08-28T14:46:48.037Z,99407.77
2018-08-28T14:49:15.801Z,99403.96
2018-08-28T14:51:43.462Z,99394.86
2018-08-28T14:54:11.173Z,99395.88
2018-08-28T14:56:38.987Z,99402.81
2018-08-28T14:59:06.693Z,99404.09
2018-08-28T15:01:34.398Z,99398.16
2018-08-28T15:04:02.357Z,99389.55
2018-08-28T15:06:30.062Z,99402.00
2018-08-28T15:08:57.719Z,99398.19
2018-08-28T15:11:25.400Z,99400.61
2018-08-28T15:13:53.169Z,99398.00
2018-08-28T15:16:20.959Z,99401.24
2018-08-28T15:18:48.810Z,99406.92
2018-08-28T15:21:16.544Z,99401.09
2018-08-28T15:23:44.321Z,99403.46
2018-08-28T15:26:12.036Z,99402.30
2018-08-28T15:28:39.751Z,99403.12
2018-08-28T15:31:07.498Z,99406.86
2018-08-28T15:33:35.410Z,99406.68
2018-08-28T15:36:03.214Z,99402.36
2018-08-28T15:38:30.971Z,99394.73
2018-08-28T15:40:58.746Z,99394.66
2018-08-28T15:43:26.458Z,99399.55
2018-08-28T15:45:54.211Z,99405.75
2018-08-28T15:48:21.961Z,99400.53
2018-08-28T15:50:49.702Z,99405.17
2018-08-28T15:53:17.405Z,99405.17
2018-08-28T15:55:45.177Z,99403.48
2018-08-28T15:58:12.886Z,99404.02
2018-08-28T16:00:40.580Z,99410.25
2018-08-28T16:03:08.366Z,99407.31
2018-08-28T16:05:36.108Z,99412.91
2018-08-28T16:08:03.910Z,99413.92
2018-08-28T16:10:31.664Z,99413.13
2018-08-28T16:12:59.382Z,99419.06
2018-08-28T16:15:27.094Z,99423.50
2018-08-28T16:17:54.846Z,99423.57
2018-08-28T16:20:22.564Z,99429.50
2018-08-28T16:22:52.890Z,99430.99
2018-08-28T16:25:20.601Z,99432.17
2018-08-28T16:27:48.453Z,99437.17
2018-08-28T16:30:16.200Z,99432.64
2018-08-28T16:32:43.965Z,99433.49
2018-08-28T16:35:11.646Z,99437.56
2018-08-28T16:37:39.416Z,99448.95
2018-08-28T16:40:07.214Z,99455.24
2018-08-28T16:42:34.944Z,99457.00
2018-08-28T16:45:03.118Z,99461.92
2018-08-28T16:47:30.889Z,99465.91
2018-08-28T16:49:58.684Z,99464.72
2018-08-28T16:52:26.372Z,99468.78
2018-08-28T16:54:54.102Z,99470.41
2018-08-28T16:57:21.805Z,99469.80
2018-08-28T16:59:49.538Z,99470.17
2018-08-28T17:02:17.261Z,99471.20
2018-08-28T17:04:44.953Z,99471.60
2018-08-28T17:07:12.700Z,99480.33
2018-08-28T17:09:40.462Z,99484.76
2018-08-28T17:12:08.194Z,99484.34
2018-08-28T17:14:36.033Z,99485.50
2018-08-28T17:17:03.797Z,99484.14
2018-08-28T17:19:31.529Z,99491.59
2018-08-28T17:21:59.225Z,99491.47
2018-08-28T17:24:26.984Z,99493.38
2018-08-28T17:26:54.765Z,99493.25
2018-08-28T17:29:22.599Z,99501.31
2018-08-28T17:31:50.769Z,99499.09
2018-08-28T17:34:18.466Z,99495.11
2018-08-28T17:36:46.313Z,99495.50
2018-08-28T17:39:14.120Z,99505.16
2018-08-28T17:41:41.864Z,99511.39
2018-08-28T17:44:09.601Z,99508.59
2018-08-28T17:46:37.746Z,99510.72
2018-08-28T17:49:05.707Z,99506.14
2018-08-28T17:51:33.321Z,99506.33
2018-08-28T17:54:01.048Z,99507.00
2018-08-28T17:56:28.734Z,99510.91
2018-08-28T17:58:56.454Z,99513.55
2018-08-28T18:01:24.275Z,99499.66
2018-08-28T18:03:51.935Z,99509.95
2018-08-28T18:06:19.595Z,99511.55
2018-08-28T18:08:47.433Z,99515.64
2018-08-28T18:11:15.166Z,99519.69
2018-08-28T18:13:42.877Z,99511.55
2018-08-28T18:16:10.614Z,99513.03
2018-08-28T18:18:38.313Z,99518.77
2018-08-28T18:21:06.017Z,99517.41
2018-08-28T18:23:33.742Z,99525.92
2018-08-28T18:26:01.474Z,99525.33
2018-08-28T18:28:29.218Z,99527.03
2018-08-28T18:30:56.953Z,99524.58
2018-08-28T18:33:24.674Z,99530.24
2018-08-28T18:35:52.385Z,99523.50
2018-08-28T18:38:20.085Z,99522.23
2018-08-28T18:40:47.816Z,99524.92
2018-08-28T18:43:15.542Z,99524.20
2018-08-28T18:45:43.958Z,99519.33
2018-08-28T18:48:11.630Z,99508.77
2018-08-28T18:50:39.332Z,99516.70
2018-08-28T18:53:07.076Z,99510.45
2018-08-28T18:55:34.771Z,99508.01
2018-08-28T18:58:02.490Z,99510.67
2018-08-28T19:00:31.408Z,99513.13
2018-08-28T19:02:59.188Z,99503.79
2018-08-28T19:05:26.874Z,99510.37
2018-08-28T19:07:54.578Z,99513.97
2018-08-28T19:10:22.273Z,99508.31
2018-08-28T19:12:50.014Z,99513.52
2018-08-28T19:15:17.757Z,99503.38
2018-08-28T19:17:45.496Z,99514.03
2018-08-28T19:20:13.198Z,99517.55
2018-08-28T19:22:40.973Z,99515.38
2018-08-28T19:25:09.334Z,99513.14
2018-08-28T19:27:37.011Z,99518.08
2018-08-28T19:30:05.092Z,99517.14
2018-08-28T19:32:32.755Z,99521.49
2018-08-28T19:35:00.431Z,99523.19
2018-08-28T19:37:28.208Z,99526.63
2018-08-28T19:39:55.920Z,99523.11
2018-08-28T19:42:23.645Z,99522.09
2018-08-28T19:44:51.413Z,99515.48
2018-08-28T19:47:19.141Z,99515.54
2018-08-28T19:49:46.858Z,99518.80
2018-08-28T19:52:14.618Z,99514.75
2018-08-28T19:54:42.301Z,99517.50
2018-08-28T19:57:10.345Z,99516.08
2018-08-28T19:59:38.097Z,99517.44
2018-08-28T20:02:05.904Z,99516.34
2018-08-28T20:04:33.632Z,99521.28
2018-08-28T20:07:01.422Z,99521.87
2018-08-28T20:09:29.128Z,99523.59
2018-08-28T20:11:56.838Z,99525.53
2018-08-28T20:14:24.619Z,99519.41
2018-08-28T20:16:52.335Z,99530.42
2018-08-28T20:19:20.006Z,99532.70
2018-08-28T20:21:47.686Z,99532.84
2018-08-28T20:24:15.376Z,99534.02
2018-08-28T20:26:43.117Z,99537.86
2018-08-28T20:29:10.876Z,99533.19
2018-08-28T20:31:38.590Z,99535.95
2018-08-28T20:34:06.597Z,99533.03
2018-08-28T20:36:34.397Z,99536.00
2018-08-28T20:39:02.252Z,99538.19
2018-08-28T20:41:29.986Z,99544.20
2018-08-28T20:43:57.697Z,99543.45
2018-08-28T20:46:25.428Z,99551.46
2018-08-28T20:48:53.429Z,99549.80
2018-08-28T20:51:21.158Z,99544.80
2018-08-28T20:53:48.846Z,99553.88
2018-08-28T20:56:16.601Z,99552.20
2018-08-28T20:58:44.285Z,99545.67
2018-08-28T21:01:11.942Z,99547.05
2018-08-28T21:03:39.604Z,99549.51
2018-08-28T21:06:07.367Z,99547.62
2018-08-28T21:08:35.089Z,99547.83
2018-08-28T21:11:02.774Z,99555.51
2018-08-28T21:13:30.533Z,99554.97
2018-08-28T21:15:58.260Z,99557.32
2018-08-28T21:18:25.986Z,99561.23
2018-08-28T21:20:53.753Z,99562.34
2018-08-28T21:23:21.449Z,99566.02
2018-08-28T21:25:49.153Z,99563.96
2018-08-28T21:28:16.885Z,99566.34
2018-08-28T21:30:44.542Z,99560.22
2018-08-28T21:33:12.357Z,99549.20
2018-08-28T21:35:40.156Z,99547.44
2018-08-28T21:38:07.936Z,99544.30
2018-08-28T21:40:35.602Z,99538.53
2018-08-28T21:43:03.365Z,99534.16
2018-08-28T21:45:31.078Z,99533.58
2018-08-28T21:47:58.831Z,99533.83
2018-08-28T21:50:26.589Z,99531.39
2018-08-28T21:52:54.271Z,99529.99
2018-08-28T21:55:21.993Z,99532.20
2018-08-28T21:57:49.806Z,99523.44
2018-08-28T22:00:17.541Z,99526.70
2018-08-28T22:02:45.280Z,99527.20
2018-08-28T22:05:13.020Z,99536.83
2018-08-28T22:07:41.858Z,99539.08
2018-08-28T22:10:09.897Z,99525.03
2018-08-28T22:12:37.631Z,99536.87
2018-08-28T22:15:10.026Z,99536.87
2018-08-28T22:17:37.765Z,99532.95
2018-08-28T22:20:05.930Z,99526.41
2018-08-28T22:22:33.603Z,99528.82
2018-08-28T22:25:01.367Z,99540.61
2018-08-28T22:27:29.055Z,99538.09
2018-08-28T22:29:56.728Z,99545.95
2018-08-28T22:32:24.487Z,99547.62
2018-08-28T22:34:52.479Z,99549.13
2018-08-28T22:37:20.172Z,99544.30
2018-08-28T22:39:47.869Z,99546.30
2018-08-28T22:42:15.554Z,99547.66
2018-08-28T22:44:43.197Z,99549.84
2018-08-28T22:47:10.913Z,99548.21
2018-08-28T22:49:38.574Z,99547.98
2018-08-28T22:52:06.268Z,99550.91
2018-08-28T22:54:34.000Z,99546.77
2018-08-28T22:57:01.679Z,99549.27
2018-08-28T22:59:29.423Z,99547.75
2018-08-28T23:01:57.128Z,99553.95
2018-08-28T23:04:24.785Z,99553.41
2018-08-28T23:06:52.466Z,99548.01
2018-08-28T23:09:20.282Z,99548.58
2018-08-28T23:11:47.988Z,99550.59
2018-08-28T23:14:15.734Z,99552.21
2018-08-28T23:16:43.432Z,99550.66
2018-08-28T23:19:11.122Z,99560.58
2018-08-28T23:21:38.818Z,99554.23
2018-08-28T23:24:06.579Z,99552.61
2018-08-28T23:26:34.262Z,99548.73
2018-08-28T23:29:01.946Z,99548.45
2018-08-28T23:31:29.638Z,99544.87
2018-08-28T23:33:57.298Z,99547.88
2018-08-28T23:36:24.965Z,99539.36
2018-08-28T23:38:52.649Z,99548.42
2018-08-28T23:41:20.317Z,99541.56
2018-08-28T23:43:47.964Z,99543.49
2018-08-28T23:46:15.662Z,99541.54
2018-08-28T23:48:43.409Z,99539.62
2018-08-28T23:51:11.090Z,99534.95
2018-08-28T23:53:38.807Z,99547.07
2018-08-28T23:56:06.942Z,99545.98
2018-08-28T23:58:34.613Z,99548.20
